Time;durP1;ratioP1;P1;durP2;ratioP2;P2;SDS_P1;SDS_P2;PMS_P1;PMS_P2;Temp;Humidity;BMP_temperature;BMP_pressure;BME280_temperature;BME280_humidity;BME280_pressure;Samples;Min_cycle;Max_cycle;Signal;HPM_P1;HPM_P2
2023/05/05 00:00:00;;;;;;;13.80;8.75;;;;;;;18.77;56.89;101319.22;5115496;28;20446;-62
2023/05/05 00:02:26;;;;;;;11.55;8.35;;;;;;;18.76;56.08;101320.13;5115528;28;20115;-63
2023/05/05 00:04:51;;;;;;;12.25;7.97;;;;;;;18.79;56.84;101322.75;5115519;28;20034;-63
2023/05/05 00:07:17;;;;;;;13.65;7.93;;;;;;;18.81;56.78;101322.72;5115346;28;20513;-63
2023/05/05 00:09:43;;;;;;;13.95;8.30;;;;;;;18.80;56.93;101319.19;5115354;27;20558;-62
2023/05/05 00:12:08;;;;;;;15.35;8.35;;;;;;;18.80;56.61;101327.22;5115569;28;20024;-63
2023/05/05 00:14:34;;;;;;;11.80;7.70;;;;;;;18.78;56.96;101326.34;5115383;28;20051;-63
2023/05/05 00:16:59;;;;;;;11.80;8.25;;;;;;;18.72;57.81;101324.66;5114087;28;20415;-62
2023/05/05 00:19:25;;;;;;;12.95;9.27;;;;;;;18.65;58.37;101335.44;5115426;28;20444;-63
2023/05/05 00:21:50;;;;;;;14.45;8.90;;;;;;;18.59;58.91;101335.53;5115182;28;20034;-63
2023/05/05 00:24:16;;;;;;;11.52;8.40;;;;;;;18.61;58.81;101333.69;5113832;28;20512;-63
2023/05/05 00:26:41;;;;;;;12.98;9.10;;;;;;;18.51;60.01;101335.63;5114967;28;20115;-63
2023/05/05 00:29:07;;;;;;;13.48;9.02;;;;;;;18.46;60.60;101334.81;5115055;28;20073;-63
2023/05/05 00:31:32;;;;;;;11.57;9.23;;;;;;;18.37;61.43;101341.19;5114035;28;20034;-62
2023/05/05 00:33:58;;;;;;;13.20;9.82;;;;;;;18.32;62.28;101342.13;5113498;28;20095;-62
2023/05/05 00:36:23;;;;;;;14.38;8.80;;;;;;;18.29;62.00;101340.41;5114880;28;20031;-62
2023/05/05 00:38:49;;;;;;;13.73;9.38;;;;;;;18.25;62.75;101344.00;5114777;28;20035;-62
2023/05/05 00:41:14;;;;;;;12.02;9.10;;;;;;;18.25;62.69;101331.53;5114623;28;20484;-63
2023/05/05 00:43:40;;;;;;;15.27;10.27;;;;;;;18.22;63.16;101344.94;5114823;28;20030;-63
2023/05/05 00:46:21;;;;;;;16.55;11.30;;;;;;;18.20;63.10;101328.03;5113376;28;20385;-62
2023/05/05 00:48:46;;;;;;;16.02;12.02;;;;;;;18.20;63.86;101344.06;5113333;28;20030;-63
2023/05/05 00:51:14;;;;;;;14.77;10.82;;;;;;;18.18;62.40;101348.53;5113701;28;20032;-63
2023/05/05 00:53:41;;;;;;;16.40;11.40;;;;;;;18.16;64.18;101352.16;5114530;28;20024;-62
2023/05/05 00:56:07;;;;;;;13.77;10.48;;;;;;;18.15;63.30;101348.56;5114546;28;20055;-63
2023/05/05 00:58:35;;;;;;;16.30;12.38;;;;;;;18.02;64.83;101352.31;5114558;28;20066;-63
2023/05/05 01:01:00;;;;;;;15.38;11.93;;;;;;;17.99;64.80;101353.25;5114423;28;20102;-63
2023/05/05 01:03:26;;;;;;;13.55;10.85;;;;;;;18.01;64.81;101345.19;5114405;28;20031;-62
2023/05/05 01:06:15;;;;;;;14.98;10.98;;;;;;;17.99;64.30;101355.91;5114446;28;20111;-63
2023/05/05 01:09:00;;;;;;;14.25;11.13;;;;;;;17.89;63.54;101342.66;5113947;28;20170;-63
2023/05/05 01:11:48;;;;;;;15.35;10.73;;;;;;;17.89;63.53;101353.34;5112057;28;20042;-63
2023/05/05 01:14:18;;;;;;;13.13;10.63;;;;;;;17.84;64.43;101355.19;5114391;28;20023;-62
2023/05/05 01:17:13;;;;;;;16.73;10.15;;;;;;;17.89;63.12;101354.22;5114197;28;20016;-62
2023/05/05 01:20:15;;;;;;;12.60;10.05;;;;;;;17.90;63.05;101363.13;5106981;28;20497;-62
2023/05/05 01:22:48;;;;;;;10.50;8.07;;;;;;;17.93;62.86;101360.44;5113960;28;20031;-62
2023/05/05 01:25:24;;;;;;;13.18;8.98;;;;;;;17.85;62.75;101357.84;5114346;28;20106;-62
2023/05/05 01:28:17;;;;;;;13.38;8.73;;;;;;;17.84;62.33;101368.56;5113927;28;20311;-63
2023/05/05 01:31:05;;;;;;;10.68;8.32;;;;;;;17.81;61.61;101371.25;5113946;28;20038;-63
2023/05/05 01:33:35;;;;;;;12.98;7.53;;;;;;;17.73;61.93;101363.31;5114124;27;20028;-63
2023/05/05 01:36:10;;;;;;;9.48;7.32;;;;;;;17.69;61.93;101354.44;5114241;28;20035;-63
2023/05/05 01:38:43;;;;;;;11.38;7.22;;;;;;;17.68;61.91;101339.28;5112778;28;20472;-62
2023/05/05 01:41:27;;;;;;;12.05;7.10;;;;;;;17.68;61.40;101336.59;5113687;28;20537;-63
2023/05/05 01:43:54;;;;;;;9.50;6.90;;;;;;;17.67;61.52;101340.19;5113798;28;20156;-63
2023/05/05 01:46:22;;;;;;;10.38;7.10;;;;;;;17.59;61.95;101346.50;5112530;28;20110;-63
2023/05/05 01:48:49;;;;;;;8.95;6.53;;;;;;;17.61;60.46;101361.66;5113446;28;20065;-63
2023/05/05 01:51:18;;;;;;;10.40;7.13;;;;;;;17.61;61.24;101361.66;5113332;28;20020;-63
2023/05/05 01:53:45;;;;;;;12.85;6.95;;;;;;;17.62;61.45;101354.50;5113649;28;20030;-62
2023/05/05 01:56:12;;;;;;;10.18;7.22;;;;;;;17.59;61.32;101347.41;5113521;28;20034;-63
2023/05/05 01:58:40;;;;;;;9.82;6.65;;;;;;;17.52;61.61;101351.94;5112288;28;20031;-64
2023/05/05 02:01:06;;;;;;;13.18;7.00;;;;;;;17.50;61.81;101352.84;5113546;28;20027;-63
2023/05/05 02:03:35;;;;;;;11.73;6.63;;;;;;;17.53;61.61;101345.69;5112046;28;20496;-63
2023/05/05 02:06:01;;;;;;;9.50;6.97;;;;;;;17.46;62.02;101359.09;5113585;28;20024;-63
2023/05/05 02:08:28;;;;;;;10.07;6.53;;;;;;;17.44;61.93;101369.81;5111954;28;20520;-63
2023/05/05 02:10:54;;;;;;;8.75;6.75;;;;;;;17.35;62.05;101356.56;5094916;28;20027;-63
2023/05/05 02:13:22;;;;;;;9.63;6.65;;;;;;;17.28;62.29;101358.38;5113317;28;20019;-63
2023/05/05 02:15:49;;;;;;;9.68;6.03;;;;;;;17.24;62.13;101356.63;5113322;28;20036;-62
2023/05/05 02:18:14;;;;;;;8.77;6.32;;;;;;;17.19;62.22;101369.13;5113514;28;20152;-63
2023/05/05 02:20:40;;;;;;;9.32;6.25;;;;;;;17.18;62.43;101364.69;5111991;28;20087;-63
2023/05/05 02:23:07;;;;;;;8.95;6.07;;;;;;;17.13;62.30;101366.53;5113636;28;20381;-62
2023/05/05 02:25:42;;;;;;;9.32;6.15;;;;;;;17.04;62.69;101366.56;5111987;28;20032;-62
2023/05/05 02:28:15;;;;;;;10.18;6.38;;;;;;;16.93;63.30;101369.34;5113256;28;20452;-64
2023/05/05 02:30:42;;;;;;;7.50;6.20;;;;;;;16.84;63.81;101380.09;5113577;28;20067;-63
2023/05/05 02:33:10;;;;;;;8.90;5.82;;;;;;;16.71;64.03;101378.34;5113398;28;20016;-62
2023/05/05 02:35:39;;;;;;;7.80;5.65;;;;;;;16.59;64.22;101375.75;5113266;28;20377;-62
2023/05/05 02:38:08;;;;;;;8.68;5.90;;;;;;;16.50;64.27;101371.34;5112142;28;20023;-63
2023/05/05 02:40:34;;;;;;;9.98;5.50;;;;;;;16.47;64.48;101374.91;5113067;28;20156;-63
2023/05/05 02:43:08;;;;;;;8.63;5.50;;;;;;;16.44;64.21;101393.59;5113161;28;20069;-63
2023/05/05 02:45:34;;;;;;;8.27;5.30;;;;;;;16.44;64.28;101387.38;5112011;28;20467;-62
2023/05/05 02:48:03;;;;;;;6.75;4.80;;;;;;;16.36;64.18;101390.09;5111731;28;20051;-63
2023/05/05 02:50:30;;;;;;;11.32;4.40;;;;;;;16.28;64.50;101398.13;5113376;28;20023;-63
2023/05/05 02:52:56;;;;;;;6.40;3.70;;;;;;;16.31;64.05;101402.53;5113042;28;20361;-63
2023/05/05 02:55:21;;;;;;;4.60;3.55;;;;;;;16.30;64.28;101403.44;5111779;28;20030;-63
2023/05/05 02:57:52;;;;;;;6.28;3.65;;;;;;;16.26;63.66;101401.69;5113010;28;20028;-63
2023/05/05 03:00:28;;;;;;;6.93;3.53;;;;;;;16.27;63.99;101403.44;5113107;28;20080;-63
2023/05/05 03:02:57;;;;;;;4.45;3.20;;;;;;;16.23;64.15;101399.00;5112891;28;20028;-63
2023/05/05 03:05:30;;;;;;;7.07;3.45;;;;;;;16.17;64.47;101402.59;5113179;28;20130;-63
2023/05/05 03:08:41;;;;;;;6.18;3.72;;;;;;;16.18;63.74;101399.03;5112511;28;20402;-63
2023/05/05 03:11:30;;;;;;;5.25;3.72;;;;;;;16.16;64.14;101394.63;5112735;28;20035;-63
2023/05/05 03:14:16;;;;;;;7.03;3.90;;;;;;;16.09;65.17;101392.84;5112859;28;20111;-62
2023/05/05 03:16:43;;;;;;;6.68;4.07;;;;;;;15.92;66.02;101395.56;5116685;28;20098;-62
2023/05/05 03:19:11;;;;;;;7.70;4.80;;;;;;;15.85;66.19;101396.50;5116516;28;20031;-63
2023/05/05 03:21:37;;;;;;;11.15;6.95;;;;;;;15.75;67.33;101403.59;5116650;28;20063;-63
2023/05/05 03:24:14;;;;;;;10.07;7.07;;;;;;;15.72;67.85;101401.84;5116408;28;20035;-62
2023/05/05 03:26:39;;;;;;;13.13;10.23;;;;;;;15.65;69.89;101396.50;5116388;28;20022;-62
2023/05/05 03:29:05;;;;;;;18.77;11.25;;;;;;;15.59;70.68;101408.03;5116371;28;20107;-62
2023/05/05 03:31:31;;;;;;;13.88;10.98;;;;;;;15.54;70.93;101417.78;5116525;28;20015;-63
2023/05/05 03:33:56;;;;;;;18.58;11.48;;;;;;;15.49;71.71;101422.22;5116322;27;20024;-63
2023/05/05 03:36:22;;;;;;;16.10;11.50;;;;;;;15.41;72.01;101410.69;5115097;28;20039;-63
2023/05/05 03:38:47;;;;;;;16.23;12.02;;;;;;;15.32;72.84;101414.25;5116045;28;20076;-62
2023/05/05 03:41:12;;;;;;;14.88;11.43;;;;;;;15.26;73.33;101419.56;5115930;28;20032;-63
2023/05/05 03:43:38;;;;;;;15.45;12.18;;;;;;;15.14;73.35;101412.47;5115999;28;20032;-62
2023/05/05 03:46:04;;;;;;;17.23;12.13;;;;;;;15.16;73.78;101402.72;5114918;28;20476;-62
2023/05/05 03:48:30;;;;;;;16.60;11.73;;;;;;;15.10;73.85;101404.47;5115644;28;20114;-62
2023/05/05 03:50:55;;;;;;;15.27;11.85;;;;;;;14.96;74.57;101399.13;5116129;28;20035;-62
2023/05/05 03:53:21;;;;;;;19.52;11.77;;;;;;;14.91;74.81;101419.53;5115850;28;20028;-63
2023/05/05 03:55:47;;;;;;;15.80;11.10;;;;;;;14.90;74.76;101418.66;5115872;27;20031;-62
2023/05/05 03:58:12;;;;;;;14.15;10.57;;;;;;;14.91;74.92;101416.88;5115851;27;20040;-62
2023/05/05 04:00:37;;;;;;;17.25;11.60;;;;;;;14.79;75.34;101417.72;5115593;28;20028;-63
2023/05/05 04:03:03;;;;;;;15.30;10.85;;;;;;;14.81;75.26;101433.69;5115565;28;20147;-62
2023/05/05 04:05:28;;;;;;;17.38;11.45;;;;;;;14.77;75.67;101439.00;5115608;28;20373;-62
2023/05/05 04:07:54;;;;;;;16.95;11.85;;;;;;;14.71;76.13;101438.09;5115135;28;20055;-63
2023/05/05 04:10:20;;;;;;;14.65;11.45;;;;;;;14.70;76.08;101436.31;5115583;28;20028;-62
2023/05/05 04:12:45;;;;;;;15.75;11.43;;;;;;;14.72;76.52;101439.84;5114415;28;20028;-63
2023/05/05 04:15:11;;;;;;;16.17;10.75;;;;;;;14.85;75.44;101441.66;5115469;28;20020;-63
2023/05/05 04:17:36;;;;;;;15.75;11.23;;;;;;;14.90;75.30;101433.69;5115115;28;20031;-63
2023/05/05 04:20:02;;;;;;;17.17;11.57;;;;;;;14.89;75.31;101431.94;5115358;28;20400;-62
2023/05/05 04:22:27;;;;;;;19.58;12.32;;;;;;;14.88;75.73;101452.34;5115136;28;20031;-62
2023/05/05 04:24:53;;;;;;;16.75;11.88;;;;;;;14.77;76.39;101451.41;5115128;28;20081;-63
2023/05/05 04:27:18;;;;;;;14.90;11.45;;;;;;;14.75;76.27;101448.75;5115215;28;20115;-62
2023/05/05 04:29:43;;;;;;;13.38;10.52;;;;;;;14.78;75.58;101450.53;5115060;28;20027;-63
2023/05/05 04:32:09;;;;;;;14.55;10.57;;;;;;;14.83;75.89;101447.88;5115058;28;20028;-63
2023/05/05 04:34:34;;;;;;;15.15;11.02;;;;;;;14.87;75.66;101444.34;5113743;28;20023;-63
2023/05/05 04:37:00;;;;;;;15.20;10.80;;;;;;;14.82;75.82;101449.66;5115002;28;20435;-63
2023/05/05 04:39:26;;;;;;;13.73;10.15;;;;;;;14.82;76.09;101456.72;5114854;28;20055;-62
2023/05/05 04:41:51;;;;;;;13.30;9.77;;;;;;;14.89;75.05;101455.88;5114743;28;20107;-64
2023/05/05 04:44:16;;;;;;;14.55;10.85;;;;;;;14.93;75.16;101445.25;5114840;28;20027;-63
2023/05/05 04:46:42;;;;;;;13.52;10.15;;;;;;;14.97;75.56;101444.38;5113383;28;20409;-63
2023/05/05 04:49:08;;;;;;;13.63;10.30;;;;;;;14.94;75.20;101448.78;5114617;28;20056;-62
2023/05/05 04:51:33;;;;;;;16.25;10.43;;;;;;;14.90;75.30;101455.91;5114877;28;20476;-62
2023/05/05 04:53:58;;;;;;;13.23;9.82;;;;;;;14.97;75.12;101462.09;5114681;28;20489;-62
2023/05/05 04:56:24;;;;;;;13.38;10.32;;;;;;;15.08;74.62;101459.50;5114631;28;20024;-62
2023/05/05 04:58:49;;;;;;;14.20;10.30;;;;;;;15.12;74.64;101456.84;5114533;28;20557;-63
2023/05/05 05:01:15;;;;;;;14.32;9.85;;;;;;;15.13;73.91;101453.28;5114504;28;20135;-63
2023/05/05 05:03:41;;;;;;;15.90;10.25;;;;;;;15.11;74.28;101449.72;5112954;28;20030;-62
2023/05/05 05:06:06;;;;;;;13.05;9.23;;;;;;;15.21;73.52;101450.63;5113222;28;20023;-63
2023/05/05 05:08:32;;;;;;;14.68;9.80;;;;;;;15.20;73.88;101448.84;5114056;28;20044;-63
2023/05/05 05:10:58;;;;;;;15.85;9.98;;;;;;;15.14;74.25;101447.06;5114169;28;20028;-63
2023/05/05 05:13:24;;;;;;;15.73;9.82;;;;;;;15.14;74.61;101449.72;5114273;28;20055;-62
2023/05/05 05:15:49;;;;;;;13.27;10.27;;;;;;;15.15;74.49;101446.16;5112908;28;20059;-62
2023/05/05 05:18:15;;;;;;;16.10;10.82;;;;;;;15.17;74.54;101441.75;5114089;28;20085;-63
2023/05/05 05:20:41;;;;;;;15.75;10.57;;;;;;;15.17;74.45;101443.53;5114349;28;20107;-63
2023/05/05 05:23:06;;;;;;;17.23;10.98;;;;;;;15.17;74.43;101439.09;5114044;28;20512;-63
2023/05/05 05:25:31;;;;;;;15.30;11.55;;;;;;;15.35;74.00;101447.97;5114050;28;20442;-62
2023/05/05 05:27:57;;;;;;;16.30;11.60;;;;;;;15.46;73.79;101441.78;5114032;28;20019;-63
2023/05/05 05:30:22;;;;;;;17.35;11.77;;;;;;;15.65;73.03;101448.00;5114050;28;20438;-63
2023/05/05 05:32:47;;;;;;;20.77;11.73;;;;;;;15.85;72.70;101464.00;5113793;28;20020;-63
2023/05/05 05:35:13;;;;;;;16.52;11.73;;;;;;;16.00;72.30;101450.63;5113886;28;20569;-63
2023/05/05 05:37:38;;;;;;;22.40;12.55;;;;;;;16.26;71.59;101457.69;5113438;28;20107;-62
2023/05/05 05:40:05;;;;;;;21.80;12.57;;;;;;;16.40;70.78;101453.22;5113655;28;20024;-62
2023/05/05 05:42:30;;;;;;;18.08;12.27;;;;;;;16.67;69.91;101459.31;5113984;28;20057;-63
2023/05/05 05:44:57;;;;;;;18.95;12.13;;;;;;;16.84;69.12;101454.81;5113829;28;20027;-63
2023/05/05 05:47:23;;;;;;;18.95;12.10;;;;;;;16.93;69.18;101462.78;5113567;28;20036;-65
2023/05/05 05:49:50;;;;;;;15.25;11.88;;;;;;;17.05;68.71;101464.50;5113980;28;20505;-63
2023/05/05 05:52:16;;;;;;;16.50;11.93;;;;;;;17.16;68.06;101470.63;5112436;28;20028;-63
2023/05/05 05:54:41;;;;;;;14.82;11.85;;;;;;;17.23;67.33;101483.06;5112466;28;20036;-63
2023/05/05 05:57:07;;;;;;;17.13;12.35;;;;;;;17.25;67.66;101502.63;5113840;28;20027;-63
2023/05/05 05:59:32;;;;;;;15.05;11.00;;;;;;;17.23;67.70;101511.56;5113769;28;20030;-64
2023/05/05 06:01:58;;;;;;;14.35;11.43;;;;;;;17.11;68.22;101517.84;5112362;28;20438;-62
2023/05/05 06:04:23;;;;;;;15.63;11.25;;;;;;;17.16;67.97;101521.38;5112937;28;20062;-62
2023/05/05 06:06:49;;;;;;;14.30;11.25;;;;;;;17.20;68.11;101530.28;5113507;28;20027;-62
2023/05/05 06:09:14;;;;;;;15.90;10.95;;;;;;;17.25;68.02;101532.00;5111395;28;20504;-62
2023/05/05 06:11:40;;;;;;;14.45;10.82;;;;;;;17.25;68.45;101529.34;5111495;28;20024;-62
2023/05/05 06:14:05;;;;;;;13.63;10.20;;;;;;;17.34;68.32;101528.38;5111373;28;20037;-62
2023/05/05 06:16:31;;;;;;;13.82;9.93;;;;;;;17.53;68.15;101522.03;5110339;28;20072;-62
2023/05/05 06:18:56;;;;;;;15.15;10.18;;;;;;;17.74;67.12;101534.41;5111747;28;20030;-62
2023/05/05 06:21:21;;;;;;;14.93;9.70;;;;;;;17.93;67.56;101523.53;5112003;28;20024;-62
2023/05/05 06:23:47;;;;;;;16.02;10.65;;;;;;;18.12;66.75;101532.31;5109837;28;20472;-62
2023/05/05 06:26:13;;;;;;;14.30;10.65;;;;;;;18.29;66.13;101537.50;5111139;28;20027;-62
2023/05/05 06:28:38;;;;;;;17.65;11.00;;;;;;;18.39;65.69;101534.69;5112969;28;20039;-63
2023/05/05 06:31:04;;;;;;;17.40;11.68;;;;;;;18.46;65.76;101535.53;5112048;28;20036;-62
2023/05/05 06:33:29;;;;;;;16.15;11.45;;;;;;;18.68;65.38;101533.50;5113156;28;20068;-62
2023/05/05 06:35:55;;;;;;;16.88;12.20;;;;;;;18.69;65.65;101529.91;5113544;28;20477;-62
2023/05/05 06:38:20;;;;;;;15.80;11.20;;;;;;;18.88;65.17;101531.47;5113286;28;20477;-62
2023/05/05 06:40:49;;;;;;;17.08;11.90;;;;;;;18.99;65.37;101531.34;5113199;28;20157;-62
2023/05/05 06:43:15;;;;;;;21.50;12.02;;;;;;;19.17;64.67;101528.41;5111920;28;20544;-62
2023/05/05 06:45:41;;;;;;;18.02;11.73;;;;;;;19.41;63.52;101528.97;5113070;28;20024;-63
2023/05/05 06:48:06;;;;;;;19.73;12.05;;;;;;;19.47;63.33;101520.84;5112969;28;20069;-62
2023/05/05 06:50:32;;;;;;;17.73;12.40;;;;;;;19.50;63.24;101524.34;5115679;28;20119;-62
2023/05/05 06:52:57;;;;;;;19.55;12.13;;;;;;;19.66;62.47;101532.22;5117014;28;20038;-62
2023/05/05 06:55:23;;;;;;;18.88;13.13;;;;;;;19.57;62.90;101527.84;5115703;28;20107;-62
2023/05/05 06:57:48;;;;;;;22.92;12.52;;;;;;;19.74;62.39;101522.22;5116972;28;20028;-62
2023/05/05 07:00:15;;;;;;;15.98;10.82;;;;;;;19.96;61.18;101530.81;5116867;28;20059;-62
2023/05/05 07:02:41;;;;;;;20.25;11.05;;;;;;;20.08;61.17;101535.94;5116892;28;20028;-63
2023/05/05 07:05:06;;;;;;;19.60;11.00;;;;;;;20.33;59.70;101532.84;5116869;28;20038;-63
2023/05/05 07:07:32;;;;;;;15.68;10.77;;;;;;;20.55;59.49;101536.91;5116516;28;20057;-62
2023/05/05 07:09:57;;;;;;;19.00;10.48;;;;;;;20.72;58.42;101540.13;5116668;28;20035;-62
2023/05/05 07:12:23;;;;;;;16.42;9.75;;;;;;;20.94;56.75;101548.66;5116776;28;20358;-62
2023/05/05 07:14:48;;;;;;;14.38;9.48;;;;;;;21.10;56.09;101546.50;5116659;28;20047;-62
2023/05/05 07:17:14;;;;;;;13.27;8.75;;;;;;;21.16;56.17;101542.84;5116811;28;20031;-63
2023/05/05 07:19:39;;;;;;;17.48;8.88;;;;;;;21.33;55.59;101551.44;5115507;28;20155;-62
2023/05/05 07:22:04;;;;;;;12.20;8.77;;;;;;;21.37;54.78;101549.53;5116628;28;20469;-62
2023/05/05 07:24:30;;;;;;;11.75;8.48;;;;;;;21.38;55.02;101554.03;5116588;27;20453;-62
2023/05/05 07:26:56;;;;;;;12.73;8.27;;;;;;;21.42;55.43;101539.59;5116482;28;20058;-62
2023/05/05 07:29:21;;;;;;;13.70;7.90;;;;;;;21.53;54.58;101552.75;5116399;28;20045;-62
2023/05/05 07:31:47;;;;;;;13.07;8.10;;;;;;;21.79;53.67;101549.44;5114931;28;20062;-62
2023/05/05 07:34:12;;;;;;;10.95;7.80;;;;;;;21.90;52.88;101550.97;5114967;28;20247;-63
2023/05/05 07:36:37;;;;;;;11.77;7.05;;;;;;;21.80;53.50;101546.75;5114844;28;20072;-62
2023/05/05 07:39:03;;;;;;;10.30;7.15;;;;;;;21.66;53.20;101547.06;5116365;28;20032;-62
2023/05/05 07:41:29;;;;;;;11.07;7.15;;;;;;;21.56;53.46;101550.00;5114655;28;20118;-62
2023/05/05 07:43:54;;;;;;;11.75;7.63;;;;;;;21.36;53.81;101554.03;5116037;28;20511;-62
2023/05/05 07:46:20;;;;;;;9.32;6.97;;;;;;;21.24;54.20;101541.75;5114506;28;20431;-62
2023/05/05 07:48:45;;;;;;;8.18;6.45;;;;;;;21.14;54.43;101536.59;5115636;28;20446;-63
2023/05/05 07:51:11;;;;;;;8.68;6.53;;;;;;;20.99;54.29;101540.50;5115810;28;20477;-62
2023/05/05 07:53:36;;;;;;;10.70;6.00;;;;;;;20.96;54.97;101548.63;5114491;28;20028;-62
2023/05/05 07:56:02;;;;;;;11.82;6.47;;;;;;;21.12;54.38;101547.38;5115641;28;20111;-63
2023/05/05 07:58:27;;;;;;;10.18;6.60;;;;;;;21.26;54.73;101541.69;5114499;28;20035;-63
2023/05/05 08:00:52;;;;;;;12.43;6.35;;;;;;;21.41;54.20;101546.78;5115340;28;20031;-63
2023/05/05 08:03:20;;;;;;;8.23;6.38;;;;;;;21.42;53.55;101532.41;5115403;28;20077;-63
2023/05/05 08:05:45;;;;;;;10.18;6.35;;;;;;;21.40;54.35;101536.03;5114738;28;20038;-62
2023/05/05 08:08:11;;;;;;;11.05;6.32;;;;;;;21.32;54.07;101532.63;5113196;28;20055;-63
2023/05/05 08:10:37;;;;;;;9.68;6.65;;;;;;;21.66;54.99;101535.41;5113499;28;20038;-62
2023/05/05 08:13:02;;;;;;;13.38;7.32;;;;;;;22.09;53.40;101531.66;5112183;28;20618;-63
2023/05/05 08:15:27;;;;;;;12.23;6.72;;;;;;;22.21;52.61;101543.00;5113536;28;20040;-63
2023/05/05 08:17:56;;;;;;;11.00;6.70;;;;;;;22.36;51.65;101538.16;5113538;28;20085;-63
2023/05/05 08:20:21;;;;;;;12.27;6.90;;;;;;;22.57;51.17;101533.97;5113884;28;20024;-63
2023/05/05 08:22:48;;;;;;;11.70;6.97;;;;;;;22.62;50.54;101543.69;5115179;28;20026;-63
2023/05/05 08:25:13;;;;;;;13.48;6.53;;;;;;;22.94;49.66;101545.50;5114002;28;20035;-62
2023/05/05 08:27:41;;;;;;;12.20;5.90;;;;;;;23.19;49.17;101544.75;5115156;28;20073;-63
2023/05/05 08:30:07;;;;;;;11.20;6.55;;;;;;;23.58;48.30;101541.75;5115162;28;20465;-63
2023/05/05 08:32:33;;;;;;;10.05;6.10;;;;;;;23.80;47.28;101539.25;5113789;28;20493;-63
2023/05/05 08:35:02;;;;;;;9.18;6.22;;;;;;;23.92;47.03;101547.81;5114958;28;20063;-63
2023/05/05 08:37:27;;;;;;;12.50;6.32;;;;;;;24.00;47.34;101542.19;5115241;28;20059;-62
2023/05/05 08:39:52;;;;;;;9.43;5.10;;;;;;;24.09;46.31;101549.09;5115303;28;20507;-62
2023/05/05 08:42:18;;;;;;;6.97;5.20;;;;;;;24.06;46.11;101543.78;5114810;27;20393;-63
2023/05/05 08:44:43;;;;;;;12.48;4.72;;;;;;;23.97;44.57;101543.16;5114793;28;20091;-62
2023/05/05 08:47:11;;;;;;;8.32;4.85;;;;;;;23.62;45.39;101552.38;5114756;28;20056;-63
2023/05/05 08:49:43;;;;;;;11.93;5.18;;;;;;;23.49;46.80;101545.63;5114718;28;20020;-62
2023/05/05 08:52:12;;;;;;;12.18;4.80;;;;;;;23.29;46.77;101548.06;5114706;28;20496;-63
2023/05/05 08:54:45;;;;;;;6.55;4.25;;;;;;;23.13;47.02;101548.53;5114964;28;20084;-62
2023/05/05 08:57:14;;;;;;;8.25;4.43;;;;;;;22.96;47.84;101543.66;5113442;28;20039;-63
2023/05/05 08:59:41;;;;;;;9.52;5.00;;;;;;;22.82;47.75;101540.41;5115142;27;20057;-63
2023/05/05 09:02:09;;;;;;;12.00;4.68;;;;;;;22.77;47.96;101545.06;5114849;28;20034;-63
2023/05/05 09:04:35;;;;;;;7.28;4.10;;;;;;;22.74;47.53;101546.06;5114395;28;20072;-62
2023/05/05 09:07:00;;;;;;;9.45;4.30;;;;;;;22.72;48.34;101533.53;5114551;28;20027;-63
2023/05/05 09:09:26;;;;;;;8.18;4.38;;;;;;;22.75;48.68;101538.84;5112959;28;20040;-63
2023/05/05 09:11:54;;;;;;;7.68;4.00;;;;;;;22.73;47.71;101535.31;5113554;28;20040;-63
2023/05/05 09:14:19;;;;;;;8.55;4.50;;;;;;;22.87;48.88;101541.19;5114381;28;20031;-63
2023/05/05 09:16:45;;;;;;;7.53;4.80;;;;;;;22.87;47.86;101543.88;5114221;28;20116;-63
2023/05/05 09:19:10;;;;;;;10.50;4.65;;;;;;;22.93;47.69;101538.34;5114114;28;20389;-63
2023/05/05 09:21:45;;;;;;;11.02;4.78;;;;;;;22.98;47.39;101549.88;5114081;28;20051;-63
2023/05/05 09:24:11;;;;;;;6.90;4.50;;;;;;;23.03;47.27;101543.44;5113807;28;20051;-63
2023/05/05 09:26:40;;;;;;;8.75;4.75;;;;;;;22.97;47.53;101555.31;5114196;28;20078;-63
2023/05/05 09:29:06;;;;;;;10.02;4.63;;;;;;;22.99;46.94;101554.31;5113929;28;20020;-62
2023/05/05 09:31:33;;;;;;;8.05;5.35;;;;;;;22.92;47.96;101555.44;5113950;28;20012;-63
2023/05/05 09:34:03;;;;;;;11.82;5.25;;;;;;;23.09;47.76;101556.78;5113872;28;20059;-63
2023/05/05 09:36:42;;;;;;;9.27;5.10;;;;;;;23.11;47.95;101545.00;5114017;28;20439;-63
2023/05/05 09:39:07;;;;;;;8.45;4.35;;;;;;;23.11;47.66;101553.06;5113793;28;20470;-63
2023/05/05 09:41:40;;;;;;;10.07;4.10;;;;;;;23.04;47.56;101565.00;5113606;28;20034;-63
2023/05/05 09:44:07;;;;;;;9.68;4.32;;;;;;;22.99;47.83;101548.94;5112884;28;20036;-63
2023/05/05 09:46:33;;;;;;;8.02;4.22;;;;;;;22.93;47.35;101559.03;5113775;28;20026;-63
2023/05/05 09:49:22;;;;;;;7.13;4.00;;;;;;;22.79;47.98;101545.03;5113553;28;20473;-63
2023/05/05 09:51:48;;;;;;;6.63;3.80;;;;;;;22.58;48.04;101546.53;5111992;28;20036;-64
2023/05/05 09:54:28;;;;;;;8.20;3.90;;;;;;;22.41;49.78;101545.19;5112458;28;20024;-63
2023/05/05 09:56:57;;;;;;;6.65;4.03;;;;;;;22.24;49.81;101548.31;5113638;28;20405;-63
2023/05/05 09:59:22;;;;;;;7.10;4.30;;;;;;;22.19;51.86;101541.31;5112275;28;20377;-63
2023/05/05 10:01:49;;;;;;;8.20;4.32;;;;;;;22.14;51.19;101544.13;5113492;28;20019;-62
2023/05/05 10:04:28;;;;;;;8.00;4.25;;;;;;;22.04;52.91;101539.84;5113408;28;20024;-63
2023/05/05 10:06:58;;;;;;;6.53;4.07;;;;;;;22.02;52.17;101533.63;5113797;28;20042;-63
2023/05/05 10:09:24;;;;;;;7.90;4.20;;;;;;;21.91;53.34;101546.47;5113193;28;20046;-63
2023/05/05 10:11:50;;;;;;;12.13;4.63;;;;;;;22.02;52.17;101538.13;5113524;28;20127;-62
2023/05/05 10:14:18;;;;;;;9.98;4.35;;;;;;;22.04;51.58;101538.97;5113614;28;20059;-62
2023/05/05 10:16:49;;;;;;;8.93;3.83;;;;;;;22.00;51.26;101535.47;5113489;28;20481;-63
2023/05/05 10:19:17;;;;;;;7.43;4.00;;;;;;;21.94;51.74;101536.50;5112499;28;20106;-63
2023/05/05 10:22:02;;;;;;;8.82;4.20;;;;;;;21.91;52.01;101538.38;5113399;28;20380;-62
2023/05/05 10:24:56;;;;;;;7.90;4.70;;;;;;;21.86;52.12;101537.63;5116144;28;20440;-63
2023/05/05 10:27:23;;;;;;;7.35;4.50;;;;;;;21.70;53.78;101535.28;5117701;27;20024;-62
2023/05/05 10:30:01;;;;;;;6.95;4.63;;;;;;;21.57;54.99;101541.91;5117666;28;20440;-62
2023/05/05 10:32:42;;;;;;;11.77;4.75;;;;;;;21.37;56.83;101545.06;5117636;28;20028;-63
2023/05/05 10:35:09;;;;;;;12.82;5.15;;;;;;;21.11;60.59;101555.47;5117515;28;20143;-70
2023/05/05 10:37:37;;;;;;;16.17;5.88;;;;;;;20.88;62.88;101558.63;5117598;28;20499;-71
2023/05/05 10:40:03;;;;;;;12.80;4.60;;;;;;;20.66;62.45;101567.13;5116321;28;20098;-69
2023/05/05 10:42:30;;;;;;;12.60;4.90;;;;;;;20.29;62.92;101557.97;5117303;28;20515;-69
2023/05/05 10:44:56;;;;;;;13.02;4.85;;;;;;;20.20;65.42;101557.19;5117339;28;20066;-70
2023/05/05 10:47:23;;;;;;;8.90;4.30;;;;;;;20.12;67.37;101559.13;5116122;28;20051;-70
2023/05/05 10:50:02;;;;;;;8.27;4.60;;;;;;;20.06;66.65;101569.97;5117259;28;20031;-71
2023/05/05 10:52:35;;;;;;;9.88;4.75;;;;;;;19.93;68.84;101566.63;5117340;28;20077;-72
2023/05/05 10:55:12;;;;;;;11.75;5.40;;;;;;;19.82;69.46;101568.56;5117241;28;20023;-72
2023/05/05 10:57:43;;;;;;;17.10;5.90;;;;;;;19.70;70.86;101568.81;5117379;28;20023;-72
2023/05/05 11:00:09;;;;;;;9.98;5.15;;;;;;;19.66;70.89;101572.44;5117152;28;20031;-72
2023/05/05 11:02:35;;;;;;;10.55;5.18;;;;;;;19.59;71.17;101566.22;5117152;28;20020;-72
2023/05/05 11:05:08;;;;;;;10.07;5.18;;;;;;;19.53;72.22;101569.03;5115659;28;20391;-72
2023/05/05 11:07:34;;;;;;;9.13;4.90;;;;;;;19.49;72.71;101572.66;5116941;28;20029;-72
2023/05/05 11:10:02;;;;;;;8.10;5.10;;;;;;;19.47;71.96;101578.00;5115425;28;20130;-72
2023/05/05 11:12:29;;;;;;;11.32;5.30;;;;;;;19.38;72.86;101574.59;5116785;28;20119;-71
2023/05/05 11:15:25;;;;;;;11.02;5.40;;;;;;;19.42;71.28;101576.31;5116828;28;20016;-71
2023/05/05 11:17:51;;;;;;;10.65;5.82;;;;;;;19.19;74.79;101565.91;5116795;28;20019;-71
2023/05/05 11:20:23;;;;;;;13.48;5.72;;;;;;;19.12;74.53;101577.63;5115647;28;20465;-71